28  °C
Temperatur
82  °F
Temperatur
63  °F
 Taupunkt
17  °C
  Taupunkt
51  %
 Luftfeuchte
  Temperatur
8  km/h
Windgeschw.
4  kts
Windgeschw.
5  mph
Windgeschw.
2.2  m/s
Windgeschw.
300°
West Nord
West

Windgeschw.
vereinzelte
Wolken
Luftdruck 1014.92 (hPa) - 29.97 (inHG)
Sichtweite 10.0 (km) - 6.2 (mi)

Wetterlage
EDSB
Ort Karlsruhe Baden-Baden Airport 19 km (11.81 mi)
Metar :EDSB 151050Z 30004KT 230V040 9999 SCT030TCU 28/17 Q1015
Sat 15th August 11:50 am

Flughafen
https://www.checkwx.com/weather/EDSB
  Metar Aviation API Data Provided by https://www.checkwx.com/ Original CSS/SVG/PHP scripts by weather34.com © 2015-2020